Time;durP1;ratioP1;P1;durP2;ratioP2;P2;SDS_P1;SDS_P2;PMS_P1;PMS_P2;Temp;Humidity;BMP_temperature;BMP_pressure;BME280_temperature;BME280_humidity;BME280_pressure;Samples;Min_cycle;Max_cycle;Signal;HPM_P1;HPM_P2
2021/12/14 00:03:54;;;;;;;16.55;8.63;;;;;;;;;;10662648;27;20070;-79
2021/12/14 00:08:57;;;;;;;14.23;8.60;;;;;;;;;;10657785;27;20031;-79
2021/12/14 00:14:25;;;;;;;13.07;8.48;;;;;;;;;;10661306;27;20460;-79
2021/12/14 00:19:27;;;;;;;12.67;7.60;;;;;;;;;;10660932;27;20034;-79
2021/12/14 00:24:28;;;;;;;14.45;8.88;;;;;;;;;;10630809;27;20080;-79
2021/12/14 00:34:42;;;;;;;15.48;8.90;;;;;;;;;;10411668;28;20046;-82
2021/12/14 00:39:43;;;;;;;13.10;8.38;;;;;;;;;;10396650;28;20076;-81
2021/12/14 00:44:44;;;;;;;17.30;8.57;;;;;;;;;;10415645;28;20097;-82
2021/12/14 00:49:45;;;;;;;15.65;8.52;;;;;;;;;;10420394;28;20444;-80
2021/12/14 00:54:45;;;;;;;12.60;7.90;;;;;;;;;;10420273;28;20064;-81
2021/12/14 00:59:46;;;;;;;16.27;8.88;;;;;;;;;;10420329;28;20061;-81
2021/12/14 01:04:50;;;;;;;13.18;7.70;;;;;;;;;;10419674;28;20068;-81
2021/12/14 01:09:56;;;;;;;12.95;8.02;;;;;;;;;;10378887;28;20108;-81
2021/12/14 01:15:23;;;;;;;14.32;7.30;;;;;;;;;;10356506;28;20030;-82
2021/12/14 01:20:30;;;;;;;15.10;8.40;;;;;;;;;;10386713;28;20488;-83
2021/12/14 01:25:37;;;;;;;12.13;8.00;;;;;;;;;;10390201;28;20034;-82
2021/12/14 01:30:50;;;;;;;14.02;7.68;;;;;;;;;;10391676;28;20100;-82
2021/12/14 01:35:52;;;;;;;17.88;7.70;;;;;;;;;;10392106;28;20026;-81
2021/12/14 01:40:56;;;;;;;14.63;7.80;;;;;;;;;;10390959;28;20069;-81
2021/12/14 01:46:00;;;;;;;13.07;7.82;;;;;;;;;;10332590;28;20026;-81
2021/12/14 01:51:04;;;;;;;12.88;8.07;;;;;;;;;;10381992;28;20064;-82
2021/12/14 01:56:09;;;;;;;11.15;7.47;;;;;;;;;;10390205;28;20034;-82
2021/12/14 02:01:15;;;;;;;11.85;7.10;;;;;;;;;;10390709;28;20032;-82
2021/12/14 02:06:20;;;;;;;13.27;7.35;;;;;;;;;;10373445;28;20041;-83
2021/12/14 02:11:21;;;;;;;11.38;7.60;;;;;;;;;;10382193;28;20034;-83
2021/12/14 02:16:22;;;;;;;11.80;7.78;;;;;;;;;;10381278;28;20025;-82
2021/12/14 02:21:23;;;;;;;12.60;7.75;;;;;;;;;;10372362;28;20034;-82
2021/12/14 02:26:29;;;;;;;17.02;7.15;;;;;;;;;;10338988;28;20069;-84
2021/12/14 02:31:34;;;;;;;15.40;7.68;;;;;;;;;;10350269;28;20459;-81
2021/12/14 02:36:40;;;;;;;11.18;7.45;;;;;;;;;;10379713;28;20439;-82
2021/12/14 02:41:47;;;;;;;11.32;7.10;;;;;;;;;;10379593;28;20036;-82
2021/12/14 02:46:51;;;;;;;10.95;7.22;;;;;;;;;;10378972;28;20030;-81
2021/12/14 02:52:03;;;;;;;13.90;7.40;;;;;;;;;;10377628;28;20479;-83
2021/12/14 02:57:14;;;;;;;14.50;6.70;;;;;;;;;;10362782;28;20154;-79
2021/12/14 03:02:18;;;;;;;10.60;6.88;;;;;;;;;;10376774;28;20074;-83
2021/12/14 03:07:22;;;;;;;10.20;6.97;;;;;;;;;;10377981;28;20030;-83
2021/12/14 03:12:33;;;;;;;12.32;7.80;;;;;;;;;;10361145;28;20030;-79
2021/12/14 03:17:34;;;;;;;13.45;7.10;;;;;;;;;;10378016;28;20087;-79
2021/12/14 03:22:59;;;;;;;10.57;7.05;;;;;;;;;;10360188;28;20512;-80
2021/12/14 03:27:59;;;;;;;11.95;6.63;;;;;;;;;;10341176;28;20046;-81
2021/12/14 03:33:07;;;;;;;10.27;6.60;;;;;;;;;;10374448;28;20057;-81
2021/12/14 03:38:15;;;;;;;10.82;6.43;;;;;;;;;;10375727;28;20038;-81
2021/12/14 03:43:16;;;;;;;11.90;7.65;;;;;;;;;;10374828;28;20030;-81
2021/12/14 03:48:17;;;;;;;9.50;6.23;;;;;;;;;;10375736;28;20037;-83
2021/12/14 03:53:19;;;;;;;10.50;6.25;;;;;;;;;;10375546;28;20572;-84
2021/12/14 03:58:24;;;;;;;10.50;6.80;;;;;;;;;;10375699;28;20353;-84
2021/12/14 04:03:26;;;;;;;11.13;6.97;;;;;;;;;;10377107;28;20475;-83
2021/12/14 04:08:28;;;;;;;11.50;6.90;;;;;;;;;;10378120;28;20026;-84
2021/12/14 04:13:36;;;;;;;9.43;6.57;;;;;;;;;;10380288;28;20117;-83
2021/12/14 04:18:36;;;;;;;8.45;6.13;;;;;;;;;;10375729;28;20121;-84
2021/12/14 04:23:41;;;;;;;9.00;6.40;;;;;;;;;;10376898;28;20121;-83
2021/12/14 04:28:46;;;;;;;9.80;6.32;;;;;;;;;;10376958;28;20459;-83
2021/12/14 04:33:47;;;;;;;9.38;6.40;;;;;;;;;;10375913;28;20069;-85
2021/12/14 04:38:56;;;;;;;9.90;6.68;;;;;;;;;;10376869;28;20461;-84
2021/12/14 04:54:39;;;;;;;11.57;6.43;;;;;;;;;;10382982;28;20354;-83
2021/12/14 04:59:40;;;;;;;9.98;6.47;;;;;;;;;;10383722;28;20034;-83
2021/12/14 05:04:41;;;;;;;8.13;6.07;;;;;;;;;;10382842;28;20108;-83
2021/12/14 05:09:41;;;;;;;8.70;6.00;;;;;;;;;;10383223;28;20483;-84
2021/12/14 05:14:44;;;;;;;7.93;5.37;;;;;;;;;;10383069;28;20032;-84
2021/12/14 05:19:46;;;;;;;7.78;5.75;;;;;;;;;;10382843;28;20455;-83
2021/12/14 05:24:49;;;;;;;11.57;7.07;;;;;;;;;;10384370;28;20483;-83
2021/12/14 05:29:50;;;;;;;9.18;6.13;;;;;;;;;;10381593;28;20045;-82
2021/12/14 05:34:50;;;;;;;12.10;6.53;;;;;;;;;;10382664;28;20494;-82
2021/12/14 05:40:02;;;;;;;8.88;6.03;;;;;;;;;;10356283;28;20047;-82
2021/12/14 05:45:09;;;;;;;10.05;6.40;;;;;;;;;;10324082;28;20048;-81
2021/12/14 05:50:17;;;;;;;8.15;5.78;;;;;;;;;;10355119;28;20034;-84
2021/12/14 05:55:24;;;;;;;8.50;6.18;;;;;;;;;;10363253;28;20026;-83
2021/12/14 06:00:27;;;;;;;8.20;6.05;;;;;;;;;;10380256;28;20036;-84
2021/12/14 06:05:29;;;;;;;11.32;6.75;;;;;;;;;;10379724;28;20375;-81
2021/12/14 06:10:30;;;;;;;7.93;6.03;;;;;;;;;;10378418;28;20037;-81
2021/12/14 06:15:31;;;;;;;11.57;7.65;;;;;;;;;;10359776;28;20041;-83
2021/12/14 06:20:31;;;;;;;9.85;6.93;;;;;;;;;;10362448;28;20030;-84
2021/12/14 06:25:32;;;;;;;9.73;7.47;;;;;;;;;;10366191;28;20053;-84
2021/12/14 06:30:34;;;;;;;9.35;5.82;;;;;;;;;;10379549;28;20050;-82
2021/12/14 06:35:40;;;;;;;7.35;6.00;;;;;;;;;;10371662;28;20039;-82
2021/12/14 06:40:50;;;;;;;9.05;6.00;;;;;;;;;;10338627;28;20034;-82
2021/12/14 06:45:57;;;;;;;8.43;6.00;;;;;;;;;;10349360;28;20037;-83
2021/12/14 06:51:09;;;;;;;19.23;6.85;;;;;;;;;;10378634;28;20463;-84
2021/12/14 06:56:12;;;;;;;11.90;7.75;;;;;;;;;;10377872;28;20034;-85
2021/12/14 07:01:18;;;;;;;13.07;7.82;;;;;;;;;;10378881;28;20042;-88
2021/12/14 07:06:24;;;;;;;30.17;8.32;;;;;;;;;;10262423;28;20104;-86
2021/12/14 07:11:26;;;;;;;17.23;8.10;;;;;;;;;;10187557;29;20060;-85
2021/12/14 07:16:31;;;;;;;14.27;8.02;;;;;;;;;;10187049;29;20074;-82
2021/12/14 07:21:37;;;;;;;12.38;8.13;;;;;;;;;;10184963;29;20039;-87
2021/12/14 07:26:38;;;;;;;15.27;7.97;;;;;;;;;;10197900;29;20056;-86
2021/12/14 07:31:41;;;;;;;14.13;7.23;;;;;;;;;;10184358;29;20063;-84
2021/12/14 07:36:43;;;;;;;17.05;8.30;;;;;;;;;;10189237;29;20979;-87
2021/12/14 07:41:50;;;;;;;15.07;8.35;;;;;;;;;;10214887;29;20098;-88
2021/12/14 07:47:00;;;;;;;17.15;8.50;;;;;;;;;;10201102;29;20124;-88
2021/12/14 07:52:18;;;;;;;18.00;8.02;;;;;;;;;;10217412;29;20122;-88
2021/12/14 07:57:25;;;;;;;13.33;8.23;;;;;;;;;;10218442;29;20027;-87
2021/12/14 08:02:35;;;;;;;12.65;8.20;;;;;;;;;;10206151;29;20470;-87
2021/12/14 08:07:39;;;;;;;16.85;9.15;;;;;;;;;;10220192;29;20027;-85
2021/12/14 08:12:56;;;;;;;13.43;8.50;;;;;;;;;;10218066;29;20038;-88
2021/12/14 08:18:02;;;;;;;17.42;8.60;;;;;;;;;;10222080;29;20074;-87
2021/12/14 08:23:16;;;;;;;13.52;8.20;;;;;;;;;;10201276;29;20087;-85
2021/12/14 08:28:21;;;;;;;18.65;8.52;;;;;;;;;;10192227;29;20039;-85
2021/12/14 08:33:23;;;;;;;16.88;9.32;;;;;;;;;;10218831;29;20781;-87
2021/12/14 08:38:26;;;;;;;13.60;8.63;;;;;;;;;;10208962;29;20040;-86
2021/12/14 08:43:34;;;;;;;17.35;9.15;;;;;;;;;;10184649;29;20390;-85
2021/12/14 08:48:45;;;;;;;13.18;8.73;;;;;;;;;;10217417;29;20500;-86
2021/12/14 08:53:52;;;;;;;14.07;9.23;;;;;;;;;;10223610;29;20076;-85
2021/12/14 08:58:53;;;;;;;17.15;8.60;;;;;;;;;;10187864;29;20032;-85
2021/12/14 09:03:59;;;;;;;12.43;8.57;;;;;;;;;;10176394;29;20043;-85
2021/12/14 09:09:04;;;;;;;15.52;9.32;;;;;;;;;;10221750;29;20055;-86
2021/12/14 09:14:09;;;;;;;13.60;8.90;;;;;;;;;;10232487;29;20039;-83
2021/12/14 09:19:15;;;;;;;12.10;8.63;;;;;;;;;;10233303;29;20024;-85
2021/12/14 09:24:19;;;;;;;15.68;9.05;;;;;;;;;;10215599;29;20044;-82
2021/12/14 09:29:22;;;;;;;16.75;8.43;;;;;;;;;;10222623;29;20036;-84
2021/12/14 09:34:25;;;;;;;12.60;8.30;;;;;;;;;;10232026;29;20051;-85
2021/12/14 09:39:37;;;;;;;13.70;8.52;;;;;;;;;;10218527;29;20038;-85
2021/12/14 09:44:38;;;;;;;13.43;8.82;;;;;;;;;;10217927;29;20040;-84
2021/12/14 09:49:39;;;;;;;14.43;8.90;;;;;;;;;;10199420;29;20047;-85
2021/12/14 09:54:40;;;;;;;17.83;8.93;;;;;;;;;;10201194;29;20040;-85
2021/12/14 09:59:42;;;;;;;15.85;8.52;;;;;;;;;;10216608;29;20039;-83
2021/12/14 10:04:47;;;;;;;13.90;8.38;;;;;;;;;;10197755;29;20031;-85
2021/12/14 10:09:50;;;;;;;14.13;8.05;;;;;;;;;;10219104;29;20056;-86
2021/12/14 10:14:52;;;;;;;11.82;8.25;;;;;;;;;;10184578;29;20070;-85
2021/12/14 10:19:53;;;;;;;14.90;8.93;;;;;;;;;;10190254;29;20032;-85
2021/12/14 10:24:57;;;;;;;13.52;8.63;;;;;;;;;;10189256;29;20056;-84
2021/12/14 10:29:59;;;;;;;13.60;8.43;;;;;;;;;;10183626;29;20123;-84
2021/12/14 10:35:07;;;;;;;13.00;8.50;;;;;;;;;;10189869;29;20451;-84
2021/12/14 10:45:28;;;;;;;11.52;8.82;;;;;;;;;;10187000;29;20032;-85
2021/12/14 10:50:35;;;;;;;13.52;8.32;;;;;;;;;;10193124;29;20032;-84
2021/12/14 10:56:01;;;;;;;12.98;8.05;;;;;;;;;;10181848;29;20367;-84
2021/12/14 11:01:08;;;;;;;11.65;7.65;;;;;;;;;;10203449;29;20390;-84
2021/12/14 11:06:12;;;;;;;11.05;8.27;;;;;;;;;;10201768;29;20119;-81
2021/12/14 11:11:18;;;;;;;13.23;9.13;;;;;;;;;;10182489;29;20036;-84
2021/12/14 11:16:33;;;;;;;12.15;8.40;;;;;;;;;;10178595;29;20099;-84
2021/12/14 11:21:34;;;;;;;11.95;8.05;;;;;;;;;;10195752;29;20063;-85
2021/12/14 11:26:35;;;;;;;11.43;8.10;;;;;;;;;;10217761;29;20078;-87
2021/12/14 11:31:50;;;;;;;12.70;7.80;;;;;;;;;;10217577;29;20466;-86
2021/12/14 11:36:56;;;;;;;12.43;8.40;;;;;;;;;;10182632;29;20039;-86
2021/12/14 11:42:04;;;;;;;12.50;8.32;;;;;;;;;;10185858;29;20382;-85
2021/12/14 11:47:59;;;;;;;14.23;8.10;;;;;;;;;;10178673;29;20078;-85
2021/12/14 11:52:56;;;;;;;11.25;7.30;;;;;;;;;;10216273;29;20401;-85
2021/12/14 11:58:25;;;;;;;10.68;7.30;;;;;;;;;;10216679;29;20038;-85
2021/12/14 12:03:25;;;;;;;;;;;;;;;;;;10212240;29;20043;-85
2021/12/14 12:13:48;;;;;;;10.77;7.15;;;;;;;;;;10216565;29;20091;-84
2021/12/14 12:19:13;;;;;;;11.15;7.70;;;;;;;;;;10201887;29;20036;-85
2021/12/14 12:24:47;;;;;;;11.07;7.53;;;;;;;;;;10188930;29;20390;-82
2021/12/14 12:30:15;;;;;;;14.82;8.30;;;;;;;;;;10255294;23;21538;-90
2021/12/14 12:35:24;;;;;;;12.50;7.30;;;;;;;;;;10306850;28;20031;-89
2021/12/14 12:41:16;;;;;;;10.18;7.45;;;;;;;;;;10332286;28;20030;-90
2021/12/14 12:46:27;;;;;;;11.25;7.22;;;;;;;;;;10313172;28;20061;-89
2021/12/14 12:51:46;;;;;;;13.45;7.88;;;;;;;;;;10332801;28;20046;-89
2021/12/14 12:56:51;;;;;;;;;;;;;;;;;;10311737;28;20038;-90
2021/12/14 13:02:12;;;;;;;10.55;7.80;;;;;;;;;;10293453;28;19914;-89
2021/12/14 13:07:13;;;;;;;14.52;7.35;;;;;;;;;;10304432;28;20038;-89
2021/12/14 13:12:14;;;;;;;12.55;7.82;;;;;;;;;;10320759;28;20118;-89
2021/12/14 13:17:17;;;;;;;11.27;7.30;;;;;;;;;;10320752;28;20039;-89
2021/12/14 13:22:18;;;;;;;12.50;7.60;;;;;;;;;;10337404;28;20057;-90
2021/12/14 13:27:21;;;;;;;11.07;7.27;;;;;;;;;;10308734;28;20050;-88
2021/12/14 13:32:42;;;;;;;11.77;6.88;;;;;;;;;;10302325;28;20472;-88
2021/12/14 13:37:49;;;;;;;11.88;7.03;;;;;;;;;;10296793;28;20055;-88
2021/12/14 13:42:55;;;;;;;11.82;7.70;;;;;;;;;;10307469;28;20542;-89
2021/12/14 13:47:57;;;;;;;13.68;7.95;;;;;;;;;;10320795;28;20161;-88
2021/12/14 13:52:58;;;;;;;10.27;7.07;;;;;;;;;;10312549;28;20141;-90
2021/12/14 13:58:05;;;;;;;11.48;7.20;;;;;;;;;;10333009;28;20537;-87
2021/12/14 14:03:06;;;;;;;15.77;7.35;;;;;;;;;;10312675;28;20042;-87
2021/12/14 14:08:10;;;;;;;13.98;7.32;;;;;;;;;;10314508;28;20381;-89
2021/12/14 14:13:20;;;;;;;10.35;7.38;;;;;;;;;;10336628;28;20108;-85
2021/12/14 14:18:28;;;;;;;9.95;6.53;;;;;;;;;;10337813;28;20093;-86
2021/12/14 14:23:54;;;;;;;12.73;7.03;;;;;;;;;;10336410;28;20483;-85
2021/12/14 14:29:04;;;;;;;11.45;7.10;;;;;;;;;;10331419;28;20169;-89
2021/12/14 14:34:28;;;;;;;15.80;6.75;;;;;;;;;;10336906;28;20070;-88
2021/12/14 14:39:52;;;;;;;11.80;6.18;;;;;;;;;;10336420;28;20030;-89
2021/12/14 14:44:56;;;;;;;11.98;6.43;;;;;;;;;;10334715;28;20058;-89
2021/12/14 14:50:00;;;;;;;11.25;5.75;;;;;;;;;;10336257;28;20026;-89
2021/12/14 14:55:05;;;;;;;10.55;5.97;;;;;;;;;;10335746;28;20121;-89
2021/12/14 15:00:07;;;;;;;9.90;6.32;;;;;;;;;;10336102;28;20042;-87
2021/12/14 15:05:28;;;;;;;10.43;6.30;;;;;;;;;;10334481;28;20484;-87
2021/12/14 15:11:01;;;;;;;9.52;6.38;;;;;;;;;;10334683;28;20038;-89
2021/12/14 15:16:18;;;;;;;8.30;6.07;;;;;;;;;;10314567;28;20042;-88
2021/12/14 15:21:33;;;;;;;11.13;6.13;;;;;;;;;;10335051;28;20034;-88
2021/12/14 15:26:34;;;;;;;8.27;5.50;;;;;;;;;;10333991;28;20042;-88
2021/12/14 15:31:34;;;;;;;8.07;5.45;;;;;;;;;;10334356;28;20050;-88
2021/12/14 15:36:34;;;;;;;10.65;5.85;;;;;;;;;;10333613;28;20034;-88
2021/12/14 15:41:37;;;;;;;11.13;5.93;;;;;;;;;;10334289;28;20043;-88
2021/12/14 15:46:42;;;;;;;8.45;5.63;;;;;;;;;;10333336;28;20460;-88
2021/12/14 15:51:52;;;;;;;10.80;6.10;;;;;;;;;;10333997;28;20380;-88
2021/12/14 15:56:56;;;;;;;6.85;5.03;;;;;;;;;;10332929;28;20038;-87
2021/12/14 16:02:01;;;;;;;9.30;6.10;;;;;;;;;;10334483;28;20066;-86
2021/12/14 16:07:02;;;;;;;9.75;5.60;;;;;;;;;;10332818;28;20039;-87
2021/12/14 16:17:25;;;;;;;9.05;5.93;;;;;;;;;;10332372;28;20061;-86
2021/12/14 16:22:30;;;;;;;6.82;5.22;;;;;;;;;;10333035;28;20101;-87
2021/12/14 16:27:31;;;;;;;9.10;5.45;;;;;;;;;;10332970;28;20127;-86
2021/12/14 16:32:31;;;;;;;9.93;5.80;;;;;;;;;;10332992;28;20133;-87
2021/12/14 16:37:34;;;;;;;9.95;5.32;;;;;;;;;;10335236;28;20031;-87
2021/12/14 16:42:35;;;;;;;12.43;5.43;;;;;;;;;;10340718;28;20126;-87
2021/12/14 16:47:43;;;;;;;9.32;5.55;;;;;;;;;;10340284;28;20046;-87
2021/12/14 16:52:44;;;;;;;7.93;5.53;;;;;;;;;;10340632;28;20038;-89
2021/12/14 16:57:44;;;;;;;7.82;5.30;;;;;;;;;;10340250;28;20380;-85
2021/12/14 17:02:47;;;;;;;9.55;5.50;;;;;;;;;;10339040;28;20184;-85
2021/12/14 17:07:48;;;;;;;8.90;5.85;;;;;;;;;;10339809;28;20055;-84
2021/12/14 17:12:55;;;;;;;11.30;5.82;;;;;;;;;;10339868;28;20126;-85
2021/12/14 17:17:58;;;;;;;8.35;5.75;;;;;;;;;;10339476;28;20033;-85
2021/12/14 17:22:59;;;;;;;8.07;5.50;;;;;;;;;;10338992;28;20045;-85
2021/12/14 17:27:59;;;;;;;10.10;5.95;;;;;;;;;;10339067;28;20043;-85
2021/12/14 17:33:00;;;;;;;8.57;5.82;;;;;;;;;;10322256;28;20057;-86
2021/12/14 17:38:03;;;;;;;9.68;6.10;;;;;;;;;;10341979;28;20039;-85
2021/12/14 17:43:08;;;;;;;9.48;6.03;;;;;;;;;;10340855;28;20088;-85
2021/12/14 17:48:09;;;;;;;8.18;5.72;;;;;;;;;;10337291;28;20121;-86
2021/12/14 17:53:12;;;;;;;9.35;5.60;;;;;;;;;;10338274;28;20045;-81
2021/12/14 17:58:19;;;;;;;14.30;8.60;;;;;;;;;;10337758;28;20037;-84
2021/12/14 18:03:45;;;;;;;13.55;8.60;;;;;;;;;;10337234;28;20511;-83
2021/12/14 18:08:49;;;;;;;14.20;8.02;;;;;;;;;;10325295;28;20072;-84
2021/12/14 18:14:02;;;;;;;16.23;9.27;;;;;;;;;;10338136;28;20042;-84
2021/12/14 18:19:04;;;;;;;14.90;8.90;;;;;;;;;;10337190;28;20031;-86
2021/12/14 18:24:08;;;;;;;17.60;8.80;;;;;;;;;;10337152;28;20040;-84
2021/12/14 18:29:12;;;;;;;13.30;8.43;;;;;;;;;;10336348;28;20121;-83
2021/12/14 18:34:16;;;;;;;13.88;9.05;;;;;;;;;;10336795;28;20431;-82
2021/12/14 18:39:22;;;;;;;15.80;9.23;;;;;;;;;;10335733;28;20026;-83
2021/12/14 18:44:24;;;;;;;19.23;9.95;;;;;;;;;;10317925;28;20354;-82
2021/12/14 18:49:39;;;;;;;16.50;9.27;;;;;;;;;;10320762;28;20069;-83
2021/12/14 18:54:41;;;;;;;16.73;9.30;;;;;;;;;;10324224;28;20041;-84
2021/12/14 18:59:48;;;;;;;18.05;9.65;;;;;;;;;;10300315;28;20113;-83
2021/12/14 19:04:52;;;;;;;14.88;10.18;;;;;;;;;;10323258;28;20121;-76
2021/12/14 19:09:53;;;;;;;14.65;9.45;;;;;;;;;;10303477;28;20035;-77
2021/12/14 19:15:15;;;;;;;15.52;9.10;;;;;;;;;;10294054;28;20027;-76
2021/12/14 19:20:35;;;;;;;14.25;8.95;;;;;;;;;;10323334;28;20038;-77
2021/12/14 19:25:37;;;;;;;15.23;8.50;;;;;;;;;;10333583;28;20468;-76
2021/12/14 19:30:39;;;;;;;15.13;9.45;;;;;;;;;;10322221;28;20484;-77
2021/12/14 19:35:45;;;;;;;13.38;8.85;;;;;;;;;;10317107;28;20080;-76
2021/12/14 19:40:51;;;;;;;14.27;8.85;;;;;;;;;;10314894;28;20037;-77
2021/12/14 19:45:54;;;;;;;12.77;8.43;;;;;;;;;;10321356;28;20389;-77
2021/12/14 19:51:01;;;;;;;16.58;9.27;;;;;;;;;;10317124;28;20034;-77
2021/12/14 19:56:03;;;;;;;12.85;8.63;;;;;;;;;;10334770;28;20384;-81
2021/12/14 20:01:08;;;;;;;11.65;8.43;;;;;;;;;;10336680;28;20034;-77
2021/12/14 20:06:13;;;;;;;14.35;8.88;;;;;;;;;;10325395;28;20057;-77
2021/12/14 20:11:27;;;;;;;13.68;8.88;;;;;;;;;;10329606;28;20454;-77
2021/12/14 20:16:29;;;;;;;14.23;8.82;;;;;;;;;;10341787;28;20030;-76
2021/12/14 20:21:40;;;;;;;15.98;8.35;;;;;;;;;;10329501;28;20042;-77
2021/12/14 20:26:44;;;;;;;13.93;8.93;;;;;;;;;;10312540;28;20080;-77
2021/12/14 20:31:54;;;;;;;13.60;8.60;;;;;;;;;;10316677;28;20064;-77
2021/12/14 20:36:56;;;;;;;13.27;8.73;;;;;;;;;;10298169;28;20101;-77
2021/12/14 20:42:14;;;;;;;14.00;8.68;;;;;;;;;;10305374;28;20042;-77
2021/12/14 20:47:16;;;;;;;13.38;8.43;;;;;;;;;;10311967;28;20038;-77
2021/12/14 20:52:26;;;;;;;13.95;8.55;;;;;;;;;;10327087;28;20034;-77
2021/12/14 20:57:29;;;;;;;12.50;8.05;;;;;;;;;;10331617;28;20385;-76
2021/12/14 21:02:29;;;;;;;12.65;7.95;;;;;;;;;;10327302;28;20441;-77
2021/12/14 21:07:30;;;;;;;13.43;8.32;;;;;;;;;;10306629;28;20030;-77
2021/12/14 21:12:31;;;;;;;12.13;7.95;;;;;;;;;;10298522;28;20042;-77
2021/12/14 21:17:37;;;;;;;13.57;7.75;;;;;;;;;;10296919;28;20042;-76
2021/12/14 21:22:43;;;;;;;13.60;8.43;;;;;;;;;;10300076;28;20042;-76
2021/12/14 21:27:52;;;;;;;11.90;8.18;;;;;;;;;;10325295;28;20469;-76
2021/12/14 21:33:02;;;;;;;13.00;7.85;;;;;;;;;;10338627;28;20054;-78
2021/12/14 21:38:20;;;;;;;17.80;9.70;;;;;;;;;;10338277;28;20113;-77
2021/12/14 21:48:39;;;;;;;22.45;10.20;;;;;;;;;;10338016;28;20071;-78
2021/12/14 21:53:40;;;;;;;19.83;8.95;;;;;;;;;;10327379;28;20033;-80
2021/12/14 21:58:40;;;;;;;21.10;9.43;;;;;;;;;;10313033;28;20155;-78
2021/12/14 22:03:41;;;;;;;17.92;9.40;;;;;;;;;;10321571;28;20042;-76
2021/12/14 22:08:42;;;;;;;28.30;8.60;;;;;;;;;;10312060;28;20042;-77
2021/12/14 22:13:45;;;;;;;26.42;9.30;;;;;;;;;;10312305;28;20065;-76
2021/12/14 22:18:46;;;;;;;34.55;9.02;;;;;;;;;;10327822;28;20073;-77
2021/12/14 22:23:46;;;;;;;14.52;7.70;;;;;;;;;;10298691;28;20488;-77
2021/12/14 22:28:47;;;;;;;18.73;8.02;;;;;;;;;;10296051;28;20547;-76
2021/12/14 22:33:48;;;;;;;17.77;7.72;;;;;;;;;;10329146;28;20519;-76
2021/12/14 22:38:52;;;;;;;14.15;8.43;;;;;;;;;;10334150;28;20041;-76
2021/12/14 22:44:08;;;;;;;16.60;7.90;;;;;;;;;;10335422;28;20045;-76
2021/12/14 22:49:14;;;;;;;15.35;7.75;;;;;;;;;;10331372;28;20034;-77
2021/12/14 22:54:15;;;;;;;13.93;8.20;;;;;;;;;;10287853;28;20486;-77
2021/12/14 22:59:16;;;;;;;16.33;8.20;;;;;;;;;;10317672;28;20054;-78
2021/12/14 23:04:19;;;;;;;14.90;7.90;;;;;;;;;;10294447;28;20453;-77
2021/12/14 23:09:26;;;;;;;11.73;7.68;;;;;;;;;;10295373;28;20097;-79
2021/12/14 23:14:38;;;;;;;17.55;7.85;;;;;;;;;;10296637;28;20026;-80
2021/12/14 23:19:56;;;;;;;17.55;7.28;;;;;;;;;;10294264;28;20093;-80
2021/12/14 23:24:58;;;;;;;14.48;8.20;;;;;;;;;;10295536;28;20039;-79
2021/12/14 23:30:02;;;;;;;13.80;7.63;;;;;;;;;;10292537;28;20055;-79
2021/12/14 23:35:04;;;;;;;14.93;7.10;;;;;;;;;;10327844;28;20042;-79
2021/12/14 23:40:06;;;;;;;15.15;7.57;;;;;;;;;;10334532;28;20082;-79
2021/12/14 23:45:13;;;;;;;13.20;7.47;;;;;;;;;;10334026;28;20105;-79
2021/12/14 23:50:14;;;;;;;15.90;8.43;;;;;;;;;;10317244;28;20030;-79
2021/12/14 23:55:15;;;;;;;13.55;7.80;;;;;;;;;;10333922;28;20041;-79
